WEATHER DATA

TODAY
Time Temp. Dewp. Hum. Bar. 1h Prec. 24h Prec.
00:03 8 7.2 95 1002.8 0.0000 0.0000
00:13 7.9 7.1 95 1002.9 0.0000 0.0000
00:23 7.8 7.1 95 1003 0.0000 0.0000
00:33 7.8 7.1 95 1003 0.0000 0.0000
00:43 7.7 7 95 1003 0.0000 0.0000
00:53 7.7 7.1 96 1003.1 0.0000 0.0000
01:03 7.6 7 96 1003.1 0.0000 0.0000
01:13 7.6 7 96 1003.2 0.0000 0.0000
01:24 7.5 6.9 96 1003 0.0000 0.0000
01:33 7.5 6.9 96 1003 0.0000 0.0000
01:43 7.4 6.8 96 1003 0.0000 0.0000
01:54 7.4 6.8 96 1002.9 0.0000 0.0000
02:04 7.3 6.7 96 1002.8 0.0000 0.0000
02:14 7.1 6.4 95 1002.7 0.0000 0.0000
02:24 6.9 6.3 96 1002.7 0.0000 0.0000
02:34 6.9 6.5 97 1002.6 0.0000 0.0000
02:44 6.8 6.4 97 1002.5 0.0000 0.0000
02:54 6.8 6.4 97 1002.4 0.0000 0.0000
03:05 6.8 6.4 97 1002.3 0.0000 0.0000
03:14 6.8 6.5 98 1002.3 0.0000 0.0000
03:24 6.8 6.5 98 1002.2 0.0000 0.0000
03:34 6.9 6.6 98 1002.2 0.0000 0.0000
03:45 7 6.7 98 1002.2 0.0000 0.0000
03:55 7 6.7 98 1002.1 0.0000 0.0000
04:05 7 6.7 98 1002.1 0.0000 0.0000
04:15 7 6.7 98 1002.1 0.0000 0.0000
04:25 7 6.7 98 1002 0.0000 0.0000
04:35 7 6.7 98 1002 0.0000 0.0000
04:45 7 6.9 99 1002 0.0000 0.0000
04:56 7 6.9 99 1001.9 0.0000 0.0000
05:05 7 6.9 99 1001.8 0.0000 0.0000
05:15 7 6.9 99 1001.7 0.0000 0.0000
05:26 7.1 7.1 100 1001.7 0.0000 0.0000
05:36 7.1 7.1 100 1001.6 0.1010 0.1010
05:45 7.2 7.2 100 1001.6 0.3030 0.3030
05:55 7.2 7.2 100 1001.5 0.3030 0.3030
06:05 7.2 7.2 100 1001.4 0.4040 0.4040
06:15 7.2 7.2 100 1001.5 0.5050 0.5050
06:25 7.2 7.2 100 1001.4 0.7070 0.7070
06:36 7.2 7.2 100 1001.4 0.8080 0.9090
06:46 7.2 7.2 100 1001.3 0.7070 1.0100
06:55 7.2 7.2 100 1001.2 1.0100 1.3130
07:06 7.2 7.2 100 1001.2 0.9090 1.3130
07:16 7.2 7.2 100 1001.1 1.0100 1.5150
07:26 7.2 7.2 100 1001.1 0.9090 1.6160
07:35 7.2 7.2 100 1001.1 0.8080 1.7170
07:46 7.2 7.2 100 1001 0.7070 1.7170
07:56 7.3 7.3 100 1000.9 0.4040 1.7170
08:06 7.4 7.4 100 1000.9 0.2020 1.7170
08:16 7.4 7.4 100 1000.8 0.2020 1.8180
08:26 7.5 7.5 100 1000.7 0.1010 1.8180
08:36 7.5 7.5 100 1000.6 0.1010 1.8180
08:46 7.5 7.5 100 1000.5 0.1010 1.8180
08:57 7.5 7.5 100 1000.5 0.1010 1.8180
09:07 7.6 7.6 100 1000.3 0.0000 1.8180
09:17 7.7 7.7 100 1000.2 0.0000 1.8180
09:27 7.7 7.7 100 1000.2 0.0000 1.8180
09:37 7.7 7.7 100 1000 0.0000 1.8180
09:47 7.7 7.7 100 999.9 0.0000 1.8180
09:57 7.7 7.7 100 999.7 0.0000 1.8180
10:12 7.9 7.9 100 999.6 0.3030 2.1210
10:22 7.9 7.9 100 999.4 0.3030 2.1210
10:32 7.8 7.8 100 999.3 0.3030 2.1210
10:43 7.8 7.8 100 999.1 0.3030 2.1210
10:53 7.8 7.8 100 999 0.4040 2.2220
11:02 7.8 7.8 100 998.8 0.2020 2.2220
11:12 7.9 7.9 100 998.7 0.3030 2.4240
11:23 7.9 7.9 100 998.5 0.7070 2.8280
11:33 8 8 100 998.4 1.0100 3.1310
11:43 8 8 100 998.3 1.2120 3.3330
11:53 8 8 100 998.1 1.1110 3.3330
12:03 8.1 8.1 100 998 1.1110 3.3330
12:13 8.2 8.2 100 998 1.0100 3.4340
12:23 8.3 8.3 100 997.9 0.7070 3.5350
12:34 8.5 8.5 100 997.7 0.4040 3.5350
12:43 8.8 8.8 100 997.7 0.2020 3.5350
12:53 9 9 100 997.8 0.3030 3.6360
13:04 9.3 9.3 100 997.6 0.4040 3.7370
13:14 9.4 9.4 100 997.7 0.3030 3.7370
13:24 9.4 9.4 100 997.7 0.2020 3.7370
13:34 9.2 9.2 100 997.6 0.2020 3.7370
13:44 9.1 9.1 100 997.7 0.3030 3.8380
13:54 9.1 9.1 100 997.7 0.4040 4.0400
14:04 9.1 9.1 100 997.7 0.9090 4.6460
14:14 8.9 8.9 100 997.7 1.3130 5.0500

DAY STATISTIC

2018-04-24
TEMPERATURE
AVERAGE
7.6
HIGH
9.4
13:14
LOW
6.8
02:44
PRESSURE
AVERAGE
1000.7
HIGH
1003.2
01:13
LOW
997.6
13:04
DEWPOINT
AVERAGE
7.5
HIGH
9.4
13:14
LOW
6.3
02:24
HUMIDITY
AVERAGE
99
HIGH
100
05:26
LOW
95
00:03
PRECIPITATION
RAIN HOUR
1.3
RAIN DAY
5.0
TEMPERATURE (°C)
LOW
6.8
HIGH
9.4
AVERAGE
7.6
PRESSURE (hpa)
LOW
997.6
HIGH
1003.2
AVERAGE
1000.7
DEVICE